createdAt,value
2023-04-12T00:00:25.223Z,355
2023-04-12T00:01:26.852Z,358
2023-04-12T00:02:24.039Z,353
2023-04-12T00:03:24.287Z,350
2023-04-12T00:04:24.406Z,354
2023-04-12T00:05:24.446Z,356
2023-04-12T00:06:23.522Z,366
2023-04-12T00:07:23.649Z,358
2023-04-12T00:08:23.969Z,350
2023-04-12T00:09:23.873Z,359
2023-04-12T00:10:23.437Z,354
2023-04-12T00:11:23.222Z,362
2023-04-12T00:12:23.275Z,364
2023-04-12T00:13:23.434Z,359
2023-04-12T00:15:24.628Z,360
2023-04-12T00:16:24.130Z,359
2023-04-12T00:17:23.305Z,357
2023-04-12T00:18:23.551Z,354
2023-04-12T00:19:23.365Z,341
2023-04-12T00:20:23.150Z,359
2023-04-12T00:21:23.458Z,363
2023-04-12T00:22:23.373Z,358
2023-04-12T00:23:23.313Z,364
2023-04-12T00:24:23.931Z,359
2023-04-12T00:25:23.705Z,363
2023-04-12T00:26:23.508Z,354
2023-04-12T00:27:23.277Z,349
2023-04-12T00:28:23.132Z,354
2023-04-12T00:29:23.356Z,364
2023-04-12T00:30:24.303Z,370
2023-04-12T00:31:23.484Z,371
2023-04-12T00:32:23.566Z,373
2023-04-12T00:33:23.632Z,357
2023-04-12T00:34:23.416Z,349
2023-04-12T00:35:23.405Z,355
2023-04-12T00:36:23.466Z,358
2023-04-12T00:38:23.226Z,356
2023-04-12T00:39:28.829Z,351
2023-04-12T00:40:23.547Z,359
2023-04-12T00:41:23.417Z,354
2023-04-12T00:42:23.345Z,350
2023-04-12T00:43:23.404Z,365
2023-04-12T00:44:23.376Z,359
2023-04-12T00:45:28.644Z,357
2023-04-12T00:46:23.569Z,356
2023-04-12T00:47:23.245Z,354
2023-04-12T00:48:23.281Z,355
2023-04-12T00:49:23.374Z,359
2023-04-12T00:50:23.876Z,362
2023-04-12T00:51:23.383Z,358
2023-04-12T00:52:23.705Z,369
2023-04-12T00:53:23.649Z,371
2023-04-12T00:54:24.056Z,363
2023-04-12T00:55:24.209Z,359
2023-04-12T00:56:23.922Z,365
2023-04-12T00:57:24.399Z,352
2023-04-12T00:58:23.425Z,351
2023-04-12T00:59:23.145Z,359
2023-04-12T01:00:24.502Z,368
2023-04-12T01:01:23.214Z,370
2023-04-12T01:02:23.193Z,369
2023-04-12T01:03:24.211Z,366
2023-04-12T01:04:23.763Z,360
2023-04-12T01:05:23.802Z,361
2023-04-12T01:06:24.268Z,364
2023-04-12T01:07:23.664Z,363
2023-04-12T01:08:23.385Z,361
2023-04-12T01:09:23.587Z,369
2023-04-12T01:10:23.482Z,367
2023-04-12T01:11:23.427Z,377
2023-04-12T01:12:23.321Z,376
2023-04-12T01:13:23.161Z,361
2023-04-12T01:14:23.412Z,352
2023-04-12T01:15:23.831Z,365
2023-04-12T01:16:23.496Z,350
2023-04-12T01:17:23.393Z,354
2023-04-12T01:18:23.444Z,356
2023-04-12T01:19:23.332Z,357
2023-04-12T01:20:23.684Z,359
2023-04-12T01:21:23.202Z,364
2023-04-12T01:22:23.038Z,370
2023-04-12T01:23:23.740Z,371
2023-04-12T01:24:23.514Z,365
2023-04-12T01:25:23.613Z,348
2023-04-12T01:26:23.276Z,345
2023-04-12T01:27:23.513Z,357
2023-04-12T01:28:23.564Z,356
2023-04-12T01:29:23.182Z,354
2023-04-12T01:30:23.849Z,353
2023-04-12T01:31:23.321Z,355
2023-04-12T01:32:23.813Z,344
2023-04-12T01:33:23.089Z,349
2023-04-12T01:34:23.772Z,362
2023-04-12T01:35:23.627Z,350
2023-04-12T01:36:23.456Z,353
2023-04-12T01:37:23.289Z,356
2023-04-12T01:38:23.247Z,359
2023-04-12T01:40:24.007Z,342
2023-04-12T01:41:23.714Z,340
2023-04-12T01:42:23.419Z,354
2023-04-12T01:43:22.907Z,359
2023-04-12T01:44:23.653Z,360
2023-04-12T01:45:24.433Z,364
2023-04-12T01:46:23.539Z,355
2023-04-12T01:47:23.562Z,372
2023-04-12T01:48:23.452Z,368
2023-04-12T01:49:23.092Z,364
2023-04-12T01:50:23.770Z,355
2023-04-12T01:51:23.326Z,357
2023-04-12T01:52:23.240Z,349
2023-04-12T01:53:23.113Z,359
2023-04-12T01:54:23.684Z,358
2023-04-12T01:55:23.361Z,350
2023-04-12T01:56:23.124Z,356
2023-04-12T01:57:23.323Z,358
2023-04-12T01:59:23.469Z,357
2023-04-12T02:00:24.024Z,362
2023-04-12T02:01:23.468Z,366
2023-04-12T02:04:24.094Z,357
2023-04-12T02:05:23.952Z,363
2023-04-12T02:06:23.406Z,362
2023-04-12T02:07:23.447Z,366
2023-04-12T02:08:23.436Z,356
2023-04-12T02:09:23.491Z,359
2023-04-12T02:10:23.306Z,360
2023-04-12T02:11:23.381Z,371
2023-04-12T02:12:23.481Z,370
2023-04-12T02:13:23.378Z,369
2023-04-12T02:14:23.476Z,376
2023-04-12T02:15:23.674Z,366
2023-04-12T02:17:23.497Z,369
2023-04-12T02:18:23.448Z,364
2023-04-12T02:19:23.549Z,360
2023-04-12T02:21:23.702Z,358
2023-04-12T02:22:23.549Z,368
2023-04-12T02:23:23.465Z,374
2023-04-12T02:24:23.127Z,363
2023-04-12T02:25:23.508Z,369
2023-04-12T02:26:23.712Z,362
2023-04-12T02:27:23.753Z,358
2023-04-12T02:28:23.576Z,346
2023-04-12T02:29:23.409Z,355
2023-04-12T02:30:23.882Z,362
2023-04-12T02:31:23.715Z,369
2023-04-12T02:32:23.632Z,371
2023-04-12T02:33:23.191Z,375
2023-04-12T02:34:23.609Z,366
2023-04-12T02:35:23.989Z,352
2023-04-12T02:36:23.600Z,358
2023-04-12T02:37:23.472Z,365
2023-04-12T02:39:23.306Z,357
2023-04-12T02:40:24.375Z,359
2023-04-12T02:41:23.621Z,360
2023-04-12T02:42:23.146Z,356
2023-04-12T02:43:23.345Z,364
2023-04-12T02:44:23.289Z,368
2023-04-12T02:45:23.523Z,367
2023-04-12T02:46:23.519Z,371
2023-04-12T02:47:23.726Z,367
2023-04-12T02:48:23.549Z,361
2023-04-12T02:52:23.461Z,352
2023-04-12T02:53:23.514Z,348
2023-04-12T02:54:23.896Z,349
2023-04-12T02:55:24.003Z,355
2023-04-12T02:56:23.454Z,356
2023-04-12T02:57:23.308Z,359
2023-04-12T02:58:23.700Z,350
2023-04-12T02:59:23.511Z,353
2023-04-12T03:00:24.439Z,355
2023-04-12T03:01:23.716Z,353
2023-04-12T03:02:23.986Z,359
2023-04-12T03:03:23.584Z,360
2023-04-12T03:04:23.768Z,366
2023-04-12T03:05:24.356Z,367
2023-04-12T03:07:23.397Z,377
2023-04-12T03:08:23.241Z,368
2023-04-12T03:09:23.409Z,363
2023-04-12T03:10:23.830Z,369
2023-04-12T03:11:23.954Z,370
2023-04-12T03:13:23.818Z,359
2023-04-12T03:14:23.443Z,357
2023-04-12T03:15:24.708Z,361
2023-04-12T03:16:24.391Z,364
2023-04-12T03:17:23.473Z,372
2023-04-12T03:19:23.810Z,357
2023-04-12T03:20:23.674Z,355
2023-04-12T03:21:23.485Z,361
2023-04-12T03:22:23.374Z,363
2023-04-12T03:25:23.359Z,353
2023-04-12T03:26:23.482Z,361
2023-04-12T03:27:23.504Z,364
2023-04-12T03:28:23.518Z,363
2023-04-12T03:29:23.479Z,369
2023-04-12T03:30:24.017Z,360
2023-04-12T03:31:23.448Z,353
2023-04-12T03:33:23.825Z,364
2023-04-12T03:34:24.108Z,365
2023-04-12T03:35:23.797Z,366
2023-04-12T03:36:24.048Z,365
2023-04-12T03:37:23.769Z,362
2023-04-12T03:38:23.880Z,360
2023-04-12T03:39:23.826Z,373
2023-04-12T03:40:24.044Z,379
2023-04-12T03:41:23.606Z,364
2023-04-12T03:42:33.196Z,363
2023-04-12T03:43:23.486Z,369
2023-04-12T03:44:23.454Z,374
2023-04-12T03:45:24.358Z,367
2023-04-12T03:46:23.628Z,355
2023-04-12T03:47:23.568Z,352
2023-04-12T03:48:23.549Z,357
2023-04-12T03:49:23.450Z,366
2023-04-12T03:50:23.631Z,363
2023-04-12T03:51:23.757Z,362
2023-04-12T03:52:23.783Z,360
2023-04-12T03:53:23.496Z,353
2023-04-12T03:54:23.279Z,350
2023-04-12T03:55:23.527Z,352
2023-04-12T03:57:23.436Z,361
2023-04-12T03:58:23.766Z,363
2023-04-12T03:59:23.518Z,367
2023-04-12T04:00:24.492Z,365
2023-04-12T04:01:23.553Z,363
2023-04-12T04:02:23.695Z,374
2023-04-12T04:04:24.205Z,367
2023-04-12T04:06:23.721Z,358
2023-04-12T04:07:23.988Z,365
2023-04-12T04:08:23.814Z,370
2023-04-12T04:09:23.891Z,367
2023-04-12T04:10:24.046Z,362
2023-04-12T04:11:23.413Z,361
2023-04-12T04:12:23.891Z,359
2023-04-12T04:13:23.548Z,352
2023-04-12T04:14:23.327Z,358
2023-04-12T04:15:23.532Z,355
2023-04-12T04:16:23.195Z,354
2023-04-12T04:17:23.402Z,367
2023-04-12T04:18:23.967Z,363
2023-04-12T04:19:23.639Z,358
2023-04-12T04:20:24.000Z,367
2023-04-12T04:21:23.559Z,350
2023-04-12T04:22:23.365Z,358
2023-04-12T04:23:24.121Z,364
2023-04-12T04:24:23.665Z,351
2023-04-12T04:25:24.019Z,352
2023-04-12T04:26:23.695Z,370
2023-04-12T04:27:23.869Z,369
2023-04-12T04:28:23.691Z,367
2023-04-12T04:29:24.204Z,370
2023-04-12T04:30:23.963Z,361
2023-04-12T04:31:23.813Z,350
2023-04-12T04:32:23.930Z,355
2023-04-12T04:33:24.172Z,358
2023-04-12T04:34:23.467Z,363
2023-04-12T04:35:24.000Z,364
2023-04-12T04:36:23.404Z,362
2023-04-12T04:37:23.785Z,355
2023-04-12T04:38:23.944Z,362
2023-04-12T04:39:23.932Z,357
2023-04-12T04:40:24.648Z,366
2023-04-12T04:41:24.036Z,373
2023-04-12T04:42:23.977Z,371
2023-04-12T04:43:23.542Z,376
2023-04-12T04:44:23.794Z,374
2023-04-12T04:45:23.935Z,363
2023-04-12T04:47:23.579Z,365
2023-04-12T04:49:23.853Z,358
2023-04-12T04:50:24.100Z,360
2023-04-12T04:51:23.530Z,362
2023-04-12T04:52:23.741Z,360
2023-04-12T04:53:24.047Z,364
2023-04-12T04:54:23.351Z,356
2023-04-12T04:55:24.240Z,366
2023-04-12T04:56:23.893Z,368
2023-04-12T04:57:23.803Z,361
2023-04-12T04:58:24.068Z,362
2023-04-12T04:59:23.595Z,363
2023-04-12T05:00:24.954Z,361
2023-04-12T05:01:24.234Z,362
2023-04-12T05:02:24.299Z,363
2023-04-12T05:03:23.776Z,362
2023-04-12T05:04:23.413Z,371
2023-04-12T05:05:24.459Z,376
2023-04-12T05:06:24.152Z,366
2023-04-12T05:07:23.393Z,355
2023-04-12T05:08:23.659Z,362
2023-04-12T05:10:23.856Z,361
2023-04-12T05:11:24.070Z,357
2023-04-12T05:12:23.602Z,360
2023-04-12T05:13:24.124Z,354
2023-04-12T05:14:23.704Z,364
2023-04-12T05:15:24.356Z,362
2023-04-12T05:16:24.020Z,358
2023-04-12T05:18:23.713Z,360
2023-04-12T05:19:24.103Z,362
2023-04-12T05:20:23.924Z,359
2023-04-12T05:21:24.628Z,356
2023-04-12T05:22:24.108Z,355
2023-04-12T05:23:23.989Z,361
2023-04-12T05:24:23.664Z,363
2023-04-12T05:25:24.234Z,372
2023-04-12T05:26:23.866Z,360
2023-04-12T05:27:23.891Z,357
2023-04-12T05:28:24.011Z,360
2023-04-12T05:29:28.612Z,363
2023-04-12T05:32:24.099Z,369
2023-04-12T05:33:23.590Z,362
2023-04-12T05:34:23.939Z,354
2023-04-12T05:35:23.571Z,361
2023-04-12T05:36:23.752Z,372
2023-04-12T05:37:23.565Z,366
2023-04-12T05:38:24.033Z,355
2023-04-12T05:39:23.934Z,358
2023-04-12T05:40:24.327Z,360
2023-04-12T05:41:24.325Z,363
2023-04-12T05:42:24.142Z,369
2023-04-12T05:43:23.802Z,354
2023-04-12T05:44:23.812Z,360
2023-04-12T05:45:24.144Z,357
2023-04-12T05:46:23.472Z,360
2023-04-12T05:47:24.096Z,364
2023-04-12T05:48:24.117Z,361
2023-04-12T05:49:24.142Z,354
2023-04-12T05:50:23.760Z,359
2023-04-12T05:51:37.653Z,360
2023-04-12T05:52:24.131Z,366
2023-04-12T05:53:24.057Z,364
2023-04-12T05:54:23.978Z,354
2023-04-12T05:55:23.594Z,367
2023-04-12T05:56:23.810Z,364
2023-04-12T05:57:23.967Z,356
2023-04-12T05:59:23.683Z,363
2023-04-12T06:00:25.252Z,362
2023-04-12T06:01:37.663Z,366
2023-04-12T06:02:24.473Z,370
2023-04-12T06:03:24.693Z,364
2023-04-12T06:04:26.378Z,360
2023-04-12T06:05:24.145Z,362
2023-04-12T06:06:23.886Z,364
2023-04-12T06:07:23.907Z,372
2023-04-12T06:08:24.345Z,367
2023-04-12T06:09:24.386Z,359
2023-04-12T06:10:24.268Z,364
2023-04-12T06:11:24.328Z,367
2023-04-12T06:12:23.994Z,376
2023-04-12T06:13:24.270Z,369
2023-04-12T06:14:23.920Z,363
2023-04-12T06:16:23.763Z,368
2023-04-12T06:17:24.354Z,371
2023-04-12T06:18:23.980Z,368
2023-04-12T06:19:23.958Z,361
2023-04-12T06:21:23.892Z,359
2023-04-12T06:24:23.782Z,360
2023-04-12T06:25:24.328Z,368
2023-04-12T06:26:24.111Z,370
2023-04-12T06:27:24.093Z,379
2023-04-12T06:28:23.837Z,371
2023-04-12T06:29:23.532Z,364
2023-04-12T06:30:24.196Z,359
2023-04-12T06:31:23.594Z,368
2023-04-12T06:32:24.024Z,360
2023-04-12T06:33:24.204Z,363
2023-04-12T06:35:24.073Z,365
2023-04-12T06:36:24.192Z,370
2023-04-12T06:37:23.944Z,369
2023-04-12T06:38:23.827Z,372
2023-04-12T06:39:24.321Z,369
2023-04-12T06:40:24.050Z,371
2023-04-12T06:41:24.062Z,368
2023-04-12T06:42:23.949Z,361
2023-04-12T06:43:23.677Z,350
2023-04-12T06:44:23.640Z,354
2023-04-12T06:45:24.623Z,363
2023-04-12T06:46:23.765Z,379
2023-04-12T06:47:24.035Z,375
2023-04-12T06:48:23.626Z,378
2023-04-12T06:49:24.334Z,367
2023-04-12T06:50:23.984Z,366
2023-04-12T06:51:24.146Z,362
2023-04-12T06:52:23.851Z,364
2023-04-12T06:53:23.537Z,367
2023-04-12T06:54:24.431Z,362
2023-04-12T06:55:24.797Z,365
2023-04-12T06:56:24.335Z,377
2023-04-12T06:57:24.031Z,366
2023-04-12T06:58:23.842Z,361
2023-04-12T06:59:24.559Z,358
2023-04-12T07:01:24.173Z,358
2023-04-12T07:02:23.994Z,363
2023-04-12T07:03:24.053Z,372
2023-04-12T07:04:24.152Z,367
2023-04-12T07:05:24.361Z,364
2023-04-12T07:07:23.749Z,357
2023-04-12T07:08:24.184Z,355
2023-04-12T07:09:24.250Z,356
2023-04-12T07:10:23.984Z,361
2023-04-12T07:11:23.949Z,362
2023-04-12T07:12:23.982Z,368
2023-04-12T07:13:23.679Z,355
2023-04-12T07:14:24.071Z,354
2023-04-12T07:15:24.921Z,362
2023-04-12T07:16:24.203Z,369
2023-04-12T07:17:23.836Z,367
2023-04-12T07:18:24.539Z,366
2023-04-12T07:19:23.773Z,365
2023-04-12T07:20:24.441Z,371
2023-04-12T07:21:23.761Z,384
2023-04-12T07:22:24.186Z,377
2023-04-12T07:23:23.707Z,363
2023-04-12T07:24:24.254Z,361
2023-04-12T07:25:24.062Z,363
2023-04-12T07:26:23.999Z,365
2023-04-12T07:27:23.800Z,362
2023-04-12T07:28:24.118Z,375
2023-04-12T07:30:24.777Z,366
2023-04-12T07:31:24.077Z,370
2023-04-12T07:32:24.183Z,368
2023-04-12T07:33:24.250Z,369
2023-04-12T07:34:24.553Z,372
2023-04-12T07:35:23.775Z,361
2023-04-12T07:36:23.855Z,360
2023-04-12T07:37:24.562Z,358
2023-04-12T07:38:24.003Z,363
2023-04-12T07:39:24.151Z,374
2023-04-12T07:40:23.890Z,366
2023-04-12T07:41:23.815Z,353
2023-04-12T07:42:23.792Z,364
2023-04-12T07:43:24.126Z,365
2023-04-12T07:44:24.140Z,364
2023-04-12T07:45:24.086Z,376
2023-04-12T07:46:24.021Z,374
2023-04-12T07:47:24.269Z,357
2023-04-12T07:48:24.088Z,356
2023-04-12T07:49:24.200Z,360
2023-04-12T07:50:24.261Z,367
2023-04-12T07:51:23.689Z,366
2023-04-12T07:52:24.006Z,367
2023-04-12T07:53:23.782Z,360
2023-04-12T07:54:24.373Z,368
2023-04-12T07:56:24.064Z,360
2023-04-12T07:57:23.553Z,361
2023-04-12T07:58:24.231Z,359
2023-04-12T07:59:23.797Z,357
2023-04-12T08:00:24.847Z,359
2023-04-12T08:02:24.170Z,358
2023-04-12T08:03:24.022Z,360
2023-04-12T08:04:23.729Z,362
2023-04-12T08:05:24.322Z,365
2023-04-12T08:06:23.888Z,360
2023-04-12T08:07:24.134Z,363
2023-04-12T08:08:24.052Z,371
2023-04-12T08:10:24.545Z,363
2023-04-12T08:11:23.942Z,361
2023-04-12T08:12:23.812Z,358
2023-04-12T08:13:24.060Z,359
2023-04-12T08:14:23.748Z,361
2023-04-12T08:15:23.699Z,371
2023-04-12T08:16:24.150Z,360
2023-04-12T08:17:24.254Z,365
2023-04-12T08:18:24.471Z,366
2023-04-12T08:19:24.049Z,372
2023-04-12T08:20:24.078Z,360
2023-04-12T08:21:23.960Z,348
2023-04-12T08:22:23.555Z,350
2023-04-12T08:23:23.956Z,363
2023-04-12T08:24:23.890Z,375
2023-04-12T08:25:24.040Z,372
2023-04-12T08:26:23.915Z,366
2023-04-12T08:27:24.423Z,364
2023-04-12T08:28:24.082Z,358
2023-04-12T08:29:23.624Z,364
2023-04-12T08:30:24.519Z,376
2023-04-12T08:31:23.811Z,372
2023-04-12T08:32:23.879Z,365
2023-04-12T08:33:24.149Z,356
2023-04-12T08:34:23.774Z,349
2023-04-12T08:35:24.309Z,358
2023-04-12T08:36:23.945Z,360
2023-04-12T08:37:23.703Z,351
2023-04-12T08:38:37.274Z,365
2023-04-12T08:39:23.432Z,368
2023-04-12T08:40:23.971Z,378
2023-04-12T08:41:23.634Z,367
2023-04-12T08:42:24.003Z,349
2023-04-12T08:43:23.902Z,346
2023-04-12T08:44:24.290Z,354
2023-04-12T08:45:23.958Z,350
2023-04-12T08:46:24.373Z,370
2023-04-12T08:47:24.073Z,366
2023-04-12T08:48:24.380Z,355
2023-04-12T08:49:23.861Z,351
2023-04-12T08:50:24.518Z,355
2023-04-12T08:51:24.626Z,360
2023-04-12T08:52:24.436Z,356
2023-04-12T08:53:24.557Z,363
2023-04-12T08:54:24.331Z,364
2023-04-12T08:55:24.253Z,359
2023-04-12T08:56:23.970Z,356
2023-04-12T08:57:24.321Z,358
2023-04-12T08:59:24.395Z,349
2023-04-12T09:00:24.640Z,351
2023-04-12T09:01:23.772Z,354
2023-04-12T09:02:24.355Z,360
2023-04-12T09:03:24.403Z,363
2023-04-12T09:04:23.687Z,365
2023-04-12T09:05:24.317Z,357
2023-04-12T09:06:24.007Z,364
2023-04-12T09:07:23.332Z,361
2023-04-12T09:08:23.764Z,362
2023-04-12T09:09:23.638Z,357
2023-04-12T09:10:24.061Z,359
2023-04-12T09:11:23.493Z,364
2023-04-12T09:12:23.664Z,347
2023-04-12T09:13:23.579Z,349
2023-04-12T09:14:23.875Z,354
2023-04-12T09:15:24.809Z,352
2023-04-12T09:16:23.910Z,360
2023-04-12T09:17:24.090Z,353
2023-04-12T09:18:23.691Z,358
2023-04-12T09:19:23.693Z,353
2023-04-12T09:20:24.416Z,357
2023-04-12T09:21:24.212Z,362
2023-04-12T09:22:23.640Z,360
2023-04-12T09:23:24.172Z,357
2023-04-12T09:24:23.720Z,347
2023-04-12T09:25:24.132Z,354
2023-04-12T09:26:23.476Z,355
2023-04-12T09:27:23.734Z,360
2023-04-12T09:28:24.157Z,369
2023-04-12T09:29:24.184Z,378
2023-04-12T09:30:24.495Z,370
2023-04-12T09:31:24.374Z,357
2023-04-12T09:32:23.947Z,350
2023-04-12T09:33:24.250Z,348
2023-04-12T09:34:24.697Z,357
2023-04-12T09:35:24.467Z,352
2023-04-12T09:36:24.116Z,342
2023-04-12T09:37:23.929Z,340
2023-04-12T09:38:24.102Z,353
2023-04-12T09:39:24.074Z,352
2023-04-12T09:40:24.496Z,358
2023-04-12T09:41:26.950Z,374
2023-04-12T09:42:33.332Z,370
2023-04-12T09:43:23.947Z,365
2023-04-12T09:44:23.918Z,352
2023-04-12T09:45:24.406Z,354
2023-04-12T09:46:24.316Z,358
2023-04-12T09:47:23.989Z,350
2023-04-12T09:48:24.316Z,349
2023-04-12T09:49:24.465Z,361
2023-04-12T09:50:24.630Z,352
2023-04-12T09:51:24.329Z,357
2023-04-12T09:52:24.207Z,346
2023-04-12T09:53:23.991Z,348
2023-04-12T09:54:24.028Z,349
2023-04-12T09:55:23.863Z,355
2023-04-12T09:56:24.463Z,356
2023-04-12T09:57:24.144Z,359
2023-04-12T09:58:24.266Z,363
2023-04-12T09:59:23.806Z,361
2023-04-12T10:00:25.586Z,359
2023-04-12T10:01:24.406Z,362
2023-04-12T10:02:24.460Z,360
2023-04-12T10:03:24.250Z,352
2023-04-12T10:04:24.444Z,354
2023-04-12T10:05:24.658Z,345
2023-04-12T10:06:23.742Z,352
2023-04-12T10:07:25.403Z,348
2023-04-12T10:08:24.100Z,351
2023-04-12T10:09:23.879Z,356
2023-04-12T10:10:24.472Z,350
2023-04-12T10:11:24.220Z,345
2023-04-12T10:12:23.843Z,341
2023-04-12T10:13:24.007Z,336
2023-04-12T10:14:23.708Z,346
2023-04-12T10:15:25.051Z,355
2023-04-12T10:16:24.318Z,347
2023-04-12T10:17:24.340Z,339
2023-04-12T10:18:24.429Z,344
2023-04-12T10:19:24.109Z,350
2023-04-12T10:20:27.367Z,355
2023-04-12T10:21:28.577Z,349
2023-04-12T10:22:23.954Z,356
2023-04-12T10:23:23.844Z,358
2023-04-12T10:24:23.912Z,353
2023-04-12T10:25:24.584Z,339
2023-04-12T10:26:23.997Z,345
2023-04-12T10:27:23.756Z,339
2023-04-12T10:28:24.352Z,347
2023-04-12T10:29:24.016Z,339
2023-04-12T10:31:31.886Z,350
2023-04-12T10:32:23.950Z,346
2023-04-12T10:33:23.714Z,350
2023-04-12T10:34:24.405Z,340
2023-04-12T10:35:32.550Z,331
2023-04-12T10:36:24.072Z,332
2023-04-12T10:37:23.902Z,327
2023-04-12T10:38:23.906Z,323
2023-04-12T10:39:23.895Z,340
2023-04-12T10:40:24.004Z,342
2023-04-12T10:42:24.251Z,336
2023-04-12T10:44:24.528Z,326
2023-04-12T10:45:24.620Z,324
2023-04-12T10:46:24.482Z,320
2023-04-12T10:47:24.599Z,319
2023-04-12T10:48:24.169Z,338
2023-04-12T10:49:24.465Z,343
2023-04-12T10:50:24.747Z,351
2023-04-12T10:51:23.752Z,348
2023-04-12T10:52:24.717Z,354
2023-04-12T10:53:24.496Z,352
2023-04-12T10:54:24.332Z,354
2023-04-12T10:55:24.325Z,350
2023-04-12T10:56:24.237Z,348
2023-04-12T10:57:24.312Z,362
2023-04-12T10:58:24.087Z,357
2023-04-12T10:59:31.278Z,354
2023-04-12T11:00:24.381Z,349
2023-04-12T11:01:43.619Z,351
2023-04-12T11:02:24.334Z,348
2023-04-12T11:03:24.331Z,351
2023-04-12T11:04:24.634Z,354
2023-04-12T11:05:24.501Z,348
2023-04-12T11:06:27.209Z,352
2023-04-12T11:08:24.736Z,356
2023-04-12T11:09:24.192Z,364
2023-04-12T11:10:24.772Z,367
2023-04-12T11:11:24.804Z,351
2023-04-12T11:13:24.122Z,365
2023-04-12T11:14:24.703Z,368
2023-04-12T11:15:24.715Z,358
2023-04-12T11:16:24.291Z,351
2023-04-12T11:17:24.847Z,356
2023-04-12T11:18:24.315Z,360
2023-04-12T11:19:25.009Z,348
2023-04-12T11:20:24.317Z,338
2023-04-12T11:21:24.350Z,350
2023-04-12T11:22:24.591Z,358
2023-04-12T11:24:24.517Z,354
2023-04-12T11:25:24.939Z,358
2023-04-12T11:26:24.216Z,368
2023-04-12T11:27:24.089Z,358
2023-04-12T11:28:29.795Z,357
2023-04-12T11:29:24.517Z,356
2023-04-12T11:30:26.084Z,361
2023-04-12T11:32:29.011Z,362
2023-04-12T11:33:23.984Z,361
2023-04-12T11:34:24.287Z,355
2023-04-12T11:35:24.435Z,362
2023-04-12T11:36:24.384Z,355
2023-04-12T11:37:24.344Z,347
2023-04-12T11:38:24.468Z,350
2023-04-12T11:40:24.310Z,353
2023-04-12T11:41:24.487Z,352
2023-04-12T11:42:24.470Z,355
2023-04-12T11:43:24.429Z,348
2023-04-12T11:44:24.503Z,340
2023-04-12T11:45:24.966Z,349
2023-04-12T11:46:24.801Z,347
2023-04-12T11:47:24.280Z,351
2023-04-12T11:48:24.391Z,348
2023-04-12T11:50:24.971Z,346
2023-04-12T11:51:23.643Z,351
2023-04-12T11:52:24.773Z,344
2023-04-12T11:53:24.706Z,341
2023-04-12T11:54:24.697Z,357
2023-04-12T11:55:24.951Z,348
2023-04-12T11:56:24.335Z,343
2023-04-12T11:57:24.744Z,345
2023-04-12T11:58:24.306Z,352
2023-04-12T11:59:24.380Z,351
2023-04-12T12:00:26.139Z,336
2023-04-12T12:01:24.860Z,340
2023-04-12T12:02:25.806Z,341
2023-04-12T12:03:25.151Z,345
2023-04-12T12:04:24.983Z,353
2023-04-12T12:05:25.407Z,340
2023-04-12T12:06:26.485Z,341
2023-04-12T12:07:24.468Z,346
2023-04-12T12:08:24.337Z,347
2023-04-12T12:09:24.954Z,349
2023-04-12T12:10:40.052Z,345
2023-04-12T12:11:24.677Z,351
2023-04-12T12:12:23.969Z,354
2023-04-12T12:13:24.089Z,345
2023-04-12T12:14:23.856Z,342
2023-04-12T12:15:23.903Z,336
2023-04-12T12:16:24.159Z,332
2023-04-12T12:17:24.345Z,331
2023-04-12T12:18:24.335Z,335
2023-04-12T12:19:24.638Z,339
2023-04-12T12:20:24.789Z,343
2023-04-12T12:21:24.844Z,354
2023-04-12T12:23:24.026Z,351
2023-04-12T12:24:24.213Z,341
2023-04-12T12:25:24.542Z,343
2023-04-12T12:26:24.818Z,346
2023-04-12T12:27:24.175Z,359
2023-04-12T12:28:24.574Z,345
2023-04-12T12:29:24.234Z,330
2023-04-12T12:30:24.841Z,337
2023-04-12T12:31:23.930Z,343
2023-04-12T12:32:24.284Z,346
2023-04-12T12:33:35.160Z,344
2023-04-12T12:34:24.352Z,338
2023-04-12T12:35:24.629Z,351
2023-04-12T12:36:24.238Z,343
2023-04-12T12:37:24.259Z,338
2023-04-12T12:38:32.016Z,340
2023-04-12T12:40:24.716Z,347
2023-04-12T12:41:24.329Z,350
2023-04-12T12:42:24.436Z,349
2023-04-12T12:43:24.187Z,345
2023-04-12T12:44:23.818Z,351
2023-04-12T12:46:23.813Z,345
2023-04-12T12:47:24.267Z,338
2023-04-12T12:48:24.195Z,340
2023-04-12T12:49:24.407Z,353
2023-04-12T12:50:24.909Z,351
2023-04-12T12:51:24.106Z,342
2023-04-12T12:52:26.954Z,341
2023-04-12T12:53:24.684Z,336
2023-04-12T12:54:36.632Z,326
2023-04-12T12:55:24.931Z,328
2023-04-12T12:56:24.648Z,338
2023-04-12T12:57:24.165Z,355
2023-04-12T12:58:32.004Z,347
2023-04-12T12:59:25.979Z,342
2023-04-12T13:00:25.503Z,345
2023-04-12T13:01:24.147Z,347
2023-04-12T13:03:24.267Z,356
2023-04-12T13:04:38.514Z,355
2023-04-12T13:05:24.855Z,347
2023-04-12T13:06:24.376Z,335
2023-04-12T13:07:24.482Z,342
2023-04-12T13:09:24.543Z,336
2023-04-12T13:10:24.478Z,340
2023-04-12T13:11:24.141Z,341
2023-04-12T13:12:24.448Z,333
2023-04-12T13:13:24.045Z,338
2023-04-12T13:14:23.806Z,343
2023-04-12T13:15:25.080Z,337
2023-04-12T13:16:27.042Z,331
2023-04-12T13:17:25.081Z,330
2023-04-12T13:18:38.269Z,337
2023-04-12T13:19:24.361Z,340
2023-04-12T13:20:24.436Z,330
2023-04-12T13:21:23.853Z,337
2023-04-12T13:22:24.443Z,354
2023-04-12T13:24:43.006Z,353
2023-04-12T13:26:24.185Z,345
2023-04-12T13:27:23.808Z,332
2023-04-12T13:28:24.335Z,337
2023-04-12T13:29:23.809Z,356
2023-04-12T13:30:24.785Z,360
2023-04-12T13:31:23.769Z,353
2023-04-12T13:32:24.249Z,335
2023-04-12T13:33:24.179Z,333
2023-04-12T13:34:23.902Z,347
2023-04-12T13:35:24.599Z,345
2023-04-12T13:36:24.199Z,331
2023-04-12T13:37:23.848Z,332
2023-04-12T13:38:23.823Z,345
2023-04-12T13:39:24.371Z,354
2023-04-12T13:40:24.069Z,347
2023-04-12T13:41:23.950Z,349
2023-04-12T13:42:24.072Z,346
2023-04-12T13:43:24.249Z,350
2023-04-12T13:44:23.861Z,340
2023-04-12T13:45:24.668Z,334
2023-04-12T13:46:24.175Z,353
2023-04-12T13:47:24.183Z,349
2023-04-12T13:48:23.873Z,353
2023-04-12T13:49:24.215Z,343
2023-04-12T13:50:24.192Z,336
2023-04-12T13:51:23.547Z,338
2023-04-12T13:52:23.989Z,343
2023-04-12T13:53:23.899Z,342
2023-04-12T13:54:24.397Z,334
2023-04-12T13:55:24.625Z,343
2023-04-12T13:56:24.213Z,338
2023-04-12T13:57:24.171Z,329
2023-04-12T13:58:24.571Z,341
2023-04-12T13:59:25.026Z,345
2023-04-12T14:00:25.117Z,335
2023-04-12T14:01:23.866Z,320
2023-04-12T14:02:24.450Z,334
2023-04-12T14:03:24.340Z,337
2023-04-12T14:04:24.241Z,333
2023-04-12T14:05:24.234Z,340
2023-04-12T14:06:24.232Z,338
2023-04-12T14:07:24.256Z,336
2023-04-12T14:08:24.561Z,344
2023-04-12T14:09:24.162Z,340
2023-04-12T14:10:24.588Z,339
2023-04-12T14:11:24.376Z,355
2023-04-12T14:13:24.050Z,349
2023-04-12T14:14:23.994Z,337
2023-04-12T14:15:24.143Z,342
2023-04-12T14:16:23.679Z,343
2023-04-12T14:17:24.675Z,344
2023-04-12T14:18:24.194Z,343
2023-04-12T14:19:24.075Z,334
2023-04-12T14:20:24.717Z,326
2023-04-12T14:21:24.614Z,337
2023-04-12T14:22:24.381Z,343
2023-04-12T14:23:24.325Z,338
2023-04-12T14:24:24.173Z,332
2023-04-12T14:25:23.741Z,342
2023-04-12T14:26:24.467Z,346
2023-04-12T14:28:24.125Z,352
2023-04-12T14:29:23.753Z,347
2023-04-12T14:30:24.584Z,346
2023-04-12T14:31:24.040Z,343
2023-04-12T14:32:23.781Z,335
2023-04-12T14:33:24.228Z,338
2023-04-12T14:34:23.894Z,348
2023-04-12T14:35:24.581Z,349
2023-04-12T14:36:24.638Z,342
2023-04-12T14:37:24.372Z,332
2023-04-12T14:38:24.810Z,345
2023-04-12T14:39:24.497Z,354
2023-04-12T14:40:24.305Z,359
2023-04-12T14:41:24.383Z,366
2023-04-12T14:42:24.607Z,345
2023-04-12T14:43:24.577Z,336
2023-04-12T14:44:26.180Z,339